WetterOnline ( https://www.wetteronline.de )

Wetter aktuell Marpingen

Aktuelles Wetter: Tholey (398m)

6-stündlich | Neueste Meldungen
Ortszeit Temperatur Wetter
Di, 24.11. 1:00 3.3° C fast wolkenlos
Mo, 23.11. 19:00 6.2° C bedeckt
Mo, 23.11. 13:00 6.0° C bedeckt
Mo, 23.11. 7:00 4.2° C leichter Regen
Mo, 23.11. 1:00 4.2° C bewölkt
So, 22.11. 19:00 4.1° C bedeckt
So, 22.11. 13:00 3.7° C bedeckt
So, 22.11. 7:00 0.3° C bedeckt
Ortszeit Temperatur Wetter
Di, 24.11. 5:00 -0.8° C Nebel
Di, 24.11. 4:50 -0.8° C Nebel
Di, 24.11. 4:40 -0.5° C Nebel
Di, 24.11. 4:30 -0.6° C Nebel
Di, 24.11. 4:20 -0.6° C Nebel
Di, 24.11. 4:10 0.2° C Nebel
Di, 24.11. 4:00 0.3° C Nebel
Di, 24.11. 3:30 0.7° C Nebel
Di, 24.11. 3:00 3.3° C wolkenlos
Di, 24.11. 2:30 2.2° C wolkenlos
Di, 24.11. 2:00 2.3° C wolkenlos
Ortszeit Relative Feuchte Sichtweite
Di, 24.11. 1:00 100% 10 km
Mo, 23.11. 19:00 97% 6 km
Mo, 23.11. 13:00 97% 5.0 km
Mo, 23.11. 7:00 99% 100 m
Mo, 23.11. 1:00 87% 17 km
So, 22.11. 19:00 86% 18 km
So, 22.11. 13:00 80% 29 km
So, 22.11. 7:00 89% 15 km
Ortszeit Relative Feuchte Sichtweite
Di, 24.11. 5:00 99% 100 m
Di, 24.11. 4:50 99% -
Di, 24.11. 4:40 99% -
Di, 24.11. 4:30 99% 100 m
Di, 24.11. 4:20 99% -
Di, 24.11. 4:10 99% -
Di, 24.11. 4:00 100% 100 m
Di, 24.11. 3:30 99% 100 m
Di, 24.11. 3:00 100% 1.8 km
Di, 24.11. 2:30 99% 16 km
Di, 24.11. 2:00 99% 5.0 km
Ortszeit Niederschlagsmenge Niederschlagsart
Di, 24.11. 1:00 0.0 l/m2 in 6 Std. -
Mo, 23.11. 19:00 0.8 l/m2 in 12 Std. -
Mo, 23.11. 13:00 0.8 l/m2 in 6 Std. Regen
Mo, 23.11. 7:00 0.4 l/m2 in 12 Std. Regen
Mo, 23.11. 1:00 0.0 l/m2 in 6 Std. -
So, 22.11. 19:00 0.0 l/m2 in 12 Std. -
So, 22.11. 13:00 0.0 l/m2 in 6 Std. -
So, 22.11. 7:00 0.0 l/m2 in 12 Std. -
Ortszeit Niederschlagsmenge Niederschlagsart
Di, 24.11. 5:00 0.0 l/m2 in 1 Std. -
Di, 24.11. 4:50 keine Meldung -
Di, 24.11. 4:40 keine Meldung -
Di, 24.11. 4:30 0.0 l/m2 in 1 Std. -
Di, 24.11. 4:20 keine Meldung -
Di, 24.11. 4:10 keine Meldung -
Di, 24.11. 4:00 0.0 l/m2 in 1 Std. -
Di, 24.11. 3:30 0.0 l/m2 in 1 Std. -
Di, 24.11. 3:00 0.0 l/m2 in 1 Std. -
Di, 24.11. 2:30 0.0 l/m2 in 1 Std. -
Di, 24.11. 2:00 0.0 l/m2 in 1 Std. -
Ortszeit Stärke Spitze Richtung
km/h Bft. km/h Grad Sektor
Di, 24.11. 1:00 11 2 14 50° NO
Mo, 23.11. 19:00 4 1 7 80° O
Mo, 23.11. 13:00 4 1 18 120° SO
Mo, 23.11. 7:00 11 2 19 270° W
Mo, 23.11. 1:00 9 2 15 270° W
So, 22.11. 19:00 9 2 17 260° W
So, 22.11. 13:00 11 2 14 250° W
So, 22.11. 7:00 7 2 11 270° W
Ortszeit Stärke Spitze Richtung
km/h Bft. km/h Grad Sektor
Di, 24.11. 5:00 11 2 11 60° NO
Di, 24.11. 4:50 11 2 - 60° NO
Di, 24.11. 4:40 11 2 - 60° NO
Di, 24.11. 4:30 7 2 11 70° O
Di, 24.11. 4:20 7 2 - 70° O
Di, 24.11. 4:10 7 2 - 70° O
Di, 24.11. 4:00 7 2 11 70° O
Di, 24.11. 3:30 7 2 11 50° NO
Di, 24.11. 3:00 9 2 15 40° NO
Di, 24.11. 2:30 11 2 14 40° NO
Di, 24.11. 2:00 9 2 13 50° NO
Ortszeit Untergrenze Bedeckung Gattung
total tief tief mittel hoch
Di, 24.11. 1:00 <30 m 1/8 0/8 - - -
Mo, 23.11. 19:00 120 m 8/8 8/8 - - -
Mo, 23.11. 13:00 60 m 8/8 8/8 - - -
Mo, 23.11. 7:00 <30 m 8/8 0/8 - - -
Mo, 23.11. 1:00 300 m 7/8 8/8 - - -
So, 22.11. 19:00 330 m 8/8 8/8 - - -
So, 22.11. 13:00 450 m 8/8 8/8 - - -
So, 22.11. 7:00 420 m 8/8 8/8 - - -
Ortszeit Bedeckungsgrad in Achtel und Wolkenuntergrenze
Di, 24.11. 5:00 6(<30m)
Di, 24.11. 4:50 6(<30m)
Di, 24.11. 4:40 4(<30m)
Di, 24.11. 4:30 3(<30m)
Di, 24.11. 4:20 3(<30m)
Di, 24.11. 4:10 3(<30m)
Di, 24.11. 4:00 4(<30m)
Di, 24.11. 3:30 2(<30m)
Di, 24.11. 3:00 keine Wolken
Di, 24.11. 2:30 keine Wolken
Di, 24.11. 2:00 keine Wolken
Ortszeit Luftdruck NN (hPa) Tendenz (hPa in 3 Std.)
Di, 24.11. 1:00 1030 - 0,8
Mo, 23.11. 19:00 1030 + 0,1
Mo, 23.11. 13:00 1030 + 0,1
Mo, 23.11. 7:00 1029 + 0,6
Mo, 23.11. 1:00 1029 - 0,1
So, 22.11. 19:00 1029 + 0,3
So, 22.11. 13:00 1030 - 0,7
So, 22.11. 7:00 1031 + 0,2
Ortszeit Luftdruck NN (hPa) Tendenz (hPa in 3 Std.)
Di, 24.11. 5:00 1028 - 1,2
Di, 24.11. 4:50 1028 keine Meldung
Di, 24.11. 4:40 1028 keine Meldung
Di, 24.11. 4:30 1029 - 1,4
Di, 24.11. 4:20 1029 keine Meldung
Di, 24.11. 4:10 1028 keine Meldung
Di, 24.11. 4:00 1029 - 1,6
Di, 24.11. 3:30 1029 - 1,6
Di, 24.11. 3:00 1029 - 1,3
Di, 24.11. 2:30 1029 - 1,3
Di, 24.11. 2:00 1029 - 1,5
Ortszeit Schneehöhe (cm)
Di, 24.11. 1:00 0
Mo, 23.11. 19:00 0
Mo, 23.11. 13:00 0
Mo, 23.11. 7:00 0
Mo, 23.11. 1:00 0
So, 22.11. 19:00 0
So, 22.11. 13:00 0
So, 22.11. 7:00 0
Ortszeit Schneehöhe (cm)
Di, 24.11. 5:00 0
Di, 24.11. 4:50 0
Di, 24.11. 4:40 0
Di, 24.11. 4:30 0
Di, 24.11. 4:20 0
Di, 24.11. 4:10 0
Di, 24.11. 4:00 0
Di, 24.11. 3:30 0
Di, 24.11. 3:00 0
Di, 24.11. 2:30 0
Di, 24.11. 2:00 0
Link zu dieser Seite / Seite empfehlen

Das Wetter in ...